createdAt,value
2018-05-07T00:00:36.270Z,15.15
2018-05-07T00:03:03.682Z,15.10
2018-05-07T00:05:31.090Z,15.06
2018-05-07T00:07:58.504Z,15.03
2018-05-07T00:10:25.911Z,14.98
2018-05-07T00:12:53.324Z,14.94
2018-05-07T00:15:20.722Z,14.91
2018-05-07T00:17:48.123Z,14.81
2018-05-07T00:20:15.539Z,14.71
2018-05-07T00:22:42.949Z,14.63
2018-05-07T00:25:10.391Z,14.57
2018-05-07T00:27:37.815Z,14.51
2018-05-07T00:30:05.224Z,14.45
2018-05-07T00:32:32.646Z,14.38
2018-05-07T00:35:00.052Z,14.34
2018-05-07T00:37:27.447Z,14.29
2018-05-07T00:39:54.843Z,14.28
2018-05-07T00:42:22.402Z,14.26
2018-05-07T00:44:49.804Z,14.26
2018-05-07T00:47:17.209Z,14.23
2018-05-07T00:49:44.933Z,14.20
2018-05-07T00:52:12.304Z,14.16
2018-05-07T00:54:51.630Z,14.13
2018-05-07T00:57:19.049Z,14.09
2018-05-07T00:59:46.453Z,14.04
2018-05-07T01:02:13.875Z,13.99
2018-05-07T01:04:41.280Z,13.94
2018-05-07T01:07:08.691Z,13.88
2018-05-07T01:09:36.096Z,13.84
2018-05-07T01:12:03.495Z,13.83
2018-05-07T01:14:30.910Z,13.79
2018-05-07T01:16:58.308Z,13.78
2018-05-07T01:19:25.723Z,13.80
2018-05-07T01:21:53.137Z,13.82
2018-05-07T01:24:20.555Z,13.84
2018-05-07T01:26:47.951Z,13.86
2018-05-07T01:29:15.348Z,13.90
2018-05-07T01:31:42.760Z,13.94
2018-05-07T01:34:10.169Z,13.96
2018-05-07T01:36:37.602Z,13.95
2018-05-07T01:39:05.059Z,13.95
2018-05-07T01:41:32.489Z,13.98
2018-05-07T01:43:59.908Z,14.01
2018-05-07T01:46:27.343Z,14.04
2018-05-07T01:48:54.763Z,14.06
2018-05-07T01:51:22.188Z,14.06
2018-05-07T01:53:49.601Z,14.04
2018-05-07T01:56:17.015Z,14.03
2018-05-07T01:58:44.424Z,13.99
2018-05-07T02:01:11.832Z,13.94
2018-05-07T02:03:39.247Z,13.92
2018-05-07T02:06:06.728Z,13.91
2018-05-07T02:08:34.136Z,13.89
2018-05-07T02:11:01.537Z,13.87
2018-05-07T02:13:28.956Z,13.81
2018-05-07T02:15:56.356Z,13.71
2018-05-07T02:18:23.776Z,13.58
2018-05-07T02:20:51.196Z,13.48
2018-05-07T02:23:18.601Z,13.43
2018-05-07T02:25:46.019Z,13.39
2018-05-07T02:28:13.744Z,13.33
2018-05-07T02:30:41.159Z,13.30
2018-05-07T02:33:08.561Z,13.28
2018-05-07T02:35:36.004Z,13.23
2018-05-07T02:38:03.419Z,13.17
2018-05-07T02:40:30.832Z,13.16
2018-05-07T02:42:58.257Z,13.13
2018-05-07T02:45:25.692Z,13.11
2018-05-07T02:47:53.104Z,13.08
2018-05-07T02:50:20.531Z,13.01
2018-05-07T02:52:47.949Z,12.96
2018-05-07T02:55:15.364Z,12.92
2018-05-07T02:57:42.771Z,12.89
2018-05-07T03:00:10.185Z,12.82
2018-05-07T03:02:37.595Z,12.70
2018-05-07T03:05:05.014Z,12.56
2018-05-07T03:07:32.428Z,12.47
2018-05-07T03:09:59.852Z,12.42
2018-05-07T03:12:27.255Z,12.38
2018-05-07T03:14:54.681Z,12.30
2018-05-07T03:17:22.096Z,12.23
2018-05-07T03:19:49.513Z,12.20
2018-05-07T03:22:16.933Z,12.19
2018-05-07T03:24:44.438Z,12.20
2018-05-07T03:27:11.773Z,12.22
2018-05-07T03:29:39.180Z,12.23
2018-05-07T03:32:06.599Z,12.26
2018-05-07T03:34:34.021Z,12.31
2018-05-07T03:37:01.459Z,12.40
2018-05-07T03:39:28.872Z,12.49
2018-05-07T03:41:56.303Z,12.53
2018-05-07T03:44:23.735Z,12.56
2018-05-07T03:46:51.155Z,12.60
2018-05-07T03:49:18.586Z,12.65
2018-05-07T03:51:46.265Z,12.70
2018-05-07T03:54:13.702Z,12.70
2018-05-07T03:56:41.141Z,12.70
2018-05-07T03:59:08.548Z,12.70
2018-05-07T04:01:35.972Z,12.72
2018-05-07T04:04:03.396Z,12.73
2018-05-07T04:06:30.819Z,12.70
2018-05-07T04:08:58.419Z,12.69
2018-05-07T04:11:25.812Z,12.70
2018-05-07T04:13:53.235Z,12.75
2018-05-07T04:16:32.421Z,12.80
2018-05-07T04:19:11.555Z,12.85
2018-05-07T04:21:38.956Z,12.90
2018-05-07T04:24:07.185Z,12.97
2018-05-07T04:26:34.588Z,13.03
2018-05-07T04:29:02.012Z,13.08
2018-05-07T04:31:29.417Z,13.16
2018-05-07T04:33:56.847Z,13.34
2018-05-07T04:36:24.248Z,13.95
2018-05-07T04:38:51.657Z,14.70
2018-05-07T04:41:19.077Z,15.45
2018-05-07T04:43:46.588Z,16.14
2018-05-07T04:46:14.012Z,16.79
2018-05-07T04:48:41.423Z,17.41
2018-05-07T04:51:08.873Z,17.97
2018-05-07T04:53:36.321Z,18.39
2018-05-07T04:56:03.717Z,19.02
2018-05-07T04:58:31.148Z,19.64
2018-05-07T05:00:58.559Z,20.23
2018-05-07T05:03:25.955Z,20.99
2018-05-07T05:05:53.375Z,21.74
2018-05-07T05:08:20.816Z,22.53
2018-05-07T05:10:48.283Z,23.23
2018-05-07T05:13:15.676Z,23.67
2018-05-07T05:15:43.079Z,24.10
2018-05-07T05:18:10.519Z,24.33
2018-05-07T05:20:37.912Z,24.62
2018-05-07T05:23:05.348Z,24.77
2018-05-07T05:25:32.989Z,24.75
2018-05-07T05:28:00.391Z,25.06
2018-05-07T05:30:27.832Z,25.11
2018-05-07T05:32:55.242Z,25.39
2018-05-07T05:35:22.644Z,25.45
2018-05-07T05:37:50.085Z,25.26
2018-05-07T05:40:17.496Z,25.47
2018-05-07T05:42:44.892Z,25.40
2018-05-07T05:45:12.323Z,25.42
2018-05-07T05:47:39.757Z,25.43
2018-05-07T05:50:07.279Z,25.02
2018-05-07T05:52:34.580Z,25.21
2018-05-07T05:55:02.005Z,25.48
2018-05-07T05:57:29.410Z,25.22
2018-05-07T05:59:56.851Z,25.53
2018-05-07T06:02:24.252Z,25.71
2018-05-07T06:04:51.697Z,25.46
2018-05-07T06:07:19.105Z,25.29
2018-05-07T06:09:46.513Z,25.13
2018-05-07T06:12:13.938Z,25.42
2018-05-07T06:14:41.398Z,25.86
2018-05-07T06:17:08.763Z,25.52
2018-05-07T06:19:36.194Z,25.46
2018-05-07T06:22:03.630Z,25.51
2018-05-07T06:24:31.024Z,25.52
2018-05-07T06:26:58.428Z,26.05
2018-05-07T06:29:25.852Z,26.06
2018-05-07T06:31:53.256Z,26.15
2018-05-07T06:34:20.749Z,26.12
2018-05-07T06:36:48.076Z,25.96
2018-05-07T06:39:15.499Z,25.21
2018-05-07T06:41:42.904Z,25.23
2018-05-07T06:44:10.332Z,25.05
2018-05-07T06:46:37.734Z,25.31
2018-05-07T06:49:05.148Z,25.61
2018-05-07T06:51:32.560Z,25.80
2018-05-07T06:53:59.980Z,25.82
2018-05-07T06:56:27.397Z,25.89
2018-05-07T06:58:54.811Z,25.79
2018-05-07T07:01:22.215Z,25.75
2018-05-07T07:03:49.620Z,25.79
2018-05-07T07:06:17.101Z,25.66
2018-05-07T07:08:44.513Z,25.53
2018-05-07T07:11:11.928Z,25.33
2018-05-07T07:13:39.340Z,25.30
2018-05-07T07:16:06.748Z,25.23
2018-05-07T07:18:34.227Z,25.79
2018-05-07T07:21:01.636Z,25.74
2018-05-07T07:23:29.047Z,25.66
2018-05-07T07:25:56.468Z,25.39
2018-05-07T07:28:23.889Z,25.42
2018-05-07T07:30:51.336Z,25.80
2018-05-07T07:33:18.762Z,25.53
2018-05-07T07:35:46.180Z,25.89
2018-05-07T07:38:13.584Z,26.24
2018-05-07T07:40:41.064Z,26.41
2018-05-07T07:43:08.480Z,26.52
2018-05-07T07:45:35.887Z,26.79
2018-05-07T07:48:03.319Z,26.27
2018-05-07T07:50:30.763Z,26.47
2018-05-07T07:52:58.184Z,26.12
2018-05-07T07:55:25.589Z,25.89
2018-05-07T07:57:53.019Z,26.10
2018-05-07T08:00:20.421Z,26.21
2018-05-07T08:02:47.840Z,26.01
2018-05-07T08:05:15.253Z,26.21
2018-05-07T08:07:42.671Z,26.46
2018-05-07T08:10:10.072Z,26.12
2018-05-07T08:12:37.472Z,26.12
2018-05-07T08:15:04.888Z,26.10
2018-05-07T08:17:32.291Z,25.95
2018-05-07T08:20:00.028Z,25.43
2018-05-07T08:22:27.427Z,25.71
2018-05-07T08:24:54.836Z,25.95
2018-05-07T08:27:22.251Z,25.99
2018-05-07T08:29:49.652Z,26.07
2018-05-07T08:32:17.075Z,25.93
2018-05-07T08:34:44.484Z,25.96
2018-05-07T08:37:11.908Z,26.06
2018-05-07T08:39:39.310Z,25.98
2018-05-07T08:42:06.724Z,25.86
2018-05-07T08:44:34.434Z,25.53
2018-05-07T08:47:02.253Z,25.75
2018-05-07T08:49:29.649Z,25.44
2018-05-07T08:51:57.055Z,25.09
2018-05-07T08:54:24.490Z,24.83
2018-05-07T08:56:51.897Z,25.03
2018-05-07T08:59:19.619Z,25.17
2018-05-07T09:01:47.141Z,25.06
2018-05-07T09:04:14.487Z,25.25
2018-05-07T09:06:41.889Z,25.26
2018-05-07T09:09:09.292Z,25.19
2018-05-07T09:11:36.720Z,25.40
2018-05-07T09:14:04.128Z,25.32
2018-05-07T09:16:31.568Z,25.73
2018-05-07T09:18:58.972Z,25.73
2018-05-07T09:21:26.392Z,25.76
2018-05-07T09:23:53.799Z,26.10
2018-05-07T09:26:21.246Z,26.45
2018-05-07T09:28:48.666Z,26.74
2018-05-07T09:31:16.063Z,26.94
2018-05-07T09:33:43.473Z,27.00
2018-05-07T09:36:10.874Z,27.21
2018-05-07T09:38:38.280Z,27.25
2018-05-07T09:41:05.840Z,27.30
2018-05-07T09:43:33.247Z,27.63
2018-05-07T09:46:00.648Z,27.99
2018-05-07T09:48:28.065Z,28.12
2018-05-07T09:50:55.464Z,27.78
2018-05-07T09:53:22.863Z,27.27
2018-05-07T09:55:50.283Z,26.70
2018-05-07T09:58:17.687Z,26.38
2018-05-07T10:00:45.521Z,26.15
2018-05-07T10:03:12.932Z,25.87
2018-05-07T10:05:40.373Z,25.66
2018-05-07T10:08:07.792Z,25.47
2018-05-07T10:10:35.204Z,25.34
2018-05-07T10:13:02.687Z,24.98
2018-05-07T10:15:30.101Z,25.00
2018-05-07T10:17:57.527Z,24.93
2018-05-07T10:20:25.017Z,24.87
2018-05-07T10:22:52.486Z,24.74
2018-05-07T10:25:19.909Z,24.69
2018-05-07T10:27:47.314Z,24.67
2018-05-07T10:30:14.736Z,24.63
2018-05-07T10:32:42.138Z,24.56
2018-05-07T10:35:09.552Z,24.27
2018-05-07T10:37:36.960Z,24.32
2018-05-07T10:40:04.389Z,24.23
2018-05-07T10:42:31.819Z,24.22
2018-05-07T10:44:59.235Z,24.25
2018-05-07T10:47:26.653Z,24.26
2018-05-07T10:49:54.063Z,24.22
2018-05-07T10:52:21.484Z,24.26
2018-05-07T10:54:48.886Z,24.32
2018-05-07T10:57:16.284Z,24.33
2018-05-07T10:59:43.695Z,24.42
2018-05-07T11:02:11.105Z,24.47
2018-05-07T11:04:38.514Z,24.48
2018-05-07T11:07:05.924Z,24.48
2018-05-07T11:09:33.335Z,24.44
2018-05-07T11:12:00.791Z,24.49
2018-05-07T11:14:28.280Z,24.49
2018-05-07T11:16:55.668Z,24.53
2018-05-07T11:19:23.079Z,24.53
2018-05-07T11:21:50.479Z,24.29
2018-05-07T11:24:17.905Z,24.41
2018-05-07T11:26:45.312Z,24.48
2018-05-07T11:29:12.740Z,24.51
2018-05-07T11:31:40.157Z,24.49
2018-05-07T11:34:07.634Z,24.55
2018-05-07T11:36:35.034Z,24.48
2018-05-07T11:39:02.510Z,24.51
2018-05-07T11:41:29.883Z,24.53
2018-05-07T11:43:57.306Z,24.66
2018-05-07T11:46:24.721Z,24.75
2018-05-07T11:48:52.145Z,24.70
2018-05-07T11:51:19.551Z,24.71
2018-05-07T11:53:46.984Z,24.82
2018-05-07T11:56:14.405Z,24.88
2018-05-07T11:58:41.817Z,24.99
2018-05-07T12:01:09.237Z,25.11
2018-05-07T12:03:36.646Z,25.10
2018-05-07T12:06:04.068Z,25.14
2018-05-07T12:08:31.507Z,25.26
2018-05-07T12:10:58.957Z,25.23
2018-05-07T12:13:26.365Z,25.18
2018-05-07T12:15:53.866Z,25.26
2018-05-07T12:18:21.252Z,25.31
2018-05-07T12:20:48.659Z,25.33
2018-05-07T12:23:16.142Z,25.33
2018-05-07T12:25:43.526Z,25.48
2018-05-07T12:28:10.912Z,25.51
2018-05-07T12:30:38.308Z,25.40
2018-05-07T12:33:05.732Z,25.34
2018-05-07T12:35:33.139Z,25.27
2018-05-07T12:38:00.571Z,25.24
2018-05-07T12:40:28.396Z,25.37
2018-05-07T12:42:55.808Z,25.33
2018-05-07T12:45:23.233Z,25.34
2018-05-07T12:47:50.637Z,25.36
2018-05-07T12:50:18.048Z,25.52
2018-05-07T12:52:45.557Z,25.58
2018-05-07T12:55:12.866Z,25.63
2018-05-07T12:57:40.268Z,25.64
2018-05-07T13:00:07.687Z,25.77
2018-05-07T13:02:35.084Z,25.82
2018-05-07T13:05:02.514Z,25.66
2018-05-07T13:07:29.931Z,25.62
2018-05-07T13:09:57.344Z,25.65
2018-05-07T13:12:24.755Z,25.69
2018-05-07T13:14:52.175Z,25.66
2018-05-07T13:17:19.936Z,25.66
2018-05-07T13:19:47.360Z,25.74
2018-05-07T13:22:14.771Z,25.76
2018-05-07T13:24:42.192Z,25.79
2018-05-07T13:27:09.605Z,25.83
2018-05-07T13:29:37.079Z,25.81
2018-05-07T13:32:04.508Z,25.77
2018-05-07T13:34:31.924Z,25.85
2018-05-07T13:36:59.399Z,25.85
2018-05-07T13:39:27.575Z,25.79
2018-05-07T13:41:54.985Z,25.75
2018-05-07T13:44:22.411Z,25.85
2018-05-07T13:46:49.881Z,25.97
2018-05-07T13:49:17.279Z,25.95
2018-05-07T13:51:44.683Z,25.99
2018-05-07T13:54:12.096Z,26.06
2018-05-07T13:56:39.496Z,26.04
2018-05-07T13:59:06.939Z,25.93
2018-05-07T14:01:34.341Z,25.84
2018-05-07T14:04:01.752Z,25.87
2018-05-07T14:06:29.151Z,25.90
2018-05-07T14:08:56.567Z,25.92
2018-05-07T14:11:23.967Z,25.91
2018-05-07T14:13:51.372Z,25.93
2018-05-07T14:16:18.794Z,25.84
2018-05-07T14:18:46.195Z,25.87
2018-05-07T14:21:13.638Z,25.86
2018-05-07T14:23:41.047Z,25.88
2018-05-07T14:26:08.467Z,25.91
2018-05-07T14:28:35.866Z,26.04
2018-05-07T14:31:03.274Z,26.09
2018-05-07T14:33:30.709Z,26.14
2018-05-07T14:35:58.103Z,26.13
2018-05-07T14:38:25.563Z,26.17
2018-05-07T14:40:52.972Z,26.03
2018-05-07T14:43:20.384Z,26.10
2018-05-07T14:45:47.834Z,26.00
2018-05-07T14:48:15.575Z,26.08
2018-05-07T14:50:43.161Z,26.08
2018-05-07T14:53:10.559Z,26.10
2018-05-07T14:55:37.977Z,26.01
2018-05-07T14:58:05.379Z,26.02
2018-05-07T15:00:32.801Z,25.98
2018-05-07T15:03:00.209Z,25.94
2018-05-07T15:05:27.669Z,26.04
2018-05-07T15:07:55.053Z,26.02
2018-05-07T15:10:22.505Z,26.05
2018-05-07T15:12:49.884Z,26.00
2018-05-07T15:15:17.300Z,25.99
2018-05-07T15:17:44.720Z,25.94
2018-05-07T15:20:12.140Z,25.91
2018-05-07T15:22:39.544Z,25.94
2018-05-07T15:25:06.956Z,25.93
2018-05-07T15:27:34.360Z,25.96
2018-05-07T15:30:01.876Z,26.01
2018-05-07T15:32:29.272Z,26.04
2018-05-07T15:34:56.981Z,26.02
2018-05-07T15:37:24.385Z,26.04
2018-05-07T15:39:51.794Z,26.15
2018-05-07T15:42:19.207Z,26.14
2018-05-07T15:44:46.640Z,26.13
2018-05-07T15:47:14.058Z,26.10
2018-05-07T15:49:41.466Z,26.11
2018-05-07T15:52:08.885Z,26.07
2018-05-07T15:54:36.292Z,26.11
2018-05-07T15:57:03.719Z,26.11
2018-05-07T15:59:31.119Z,26.07
2018-05-07T16:01:58.547Z,26.14
2018-05-07T16:04:25.961Z,26.20
2018-05-07T16:06:53.380Z,26.19
2018-05-07T16:09:20.800Z,26.21
2018-05-07T16:11:48.207Z,26.16
2018-05-07T16:14:15.619Z,26.16
2018-05-07T16:16:43.031Z,26.15
2018-05-07T16:19:10.435Z,26.10
2018-05-07T16:21:38.267Z,26.04
2018-05-07T16:24:05.651Z,26.05
2018-05-07T16:26:33.100Z,25.96
2018-05-07T16:29:00.468Z,25.97
2018-05-07T16:31:27.871Z,25.94
2018-05-07T16:33:55.288Z,25.89
2018-05-07T16:36:22.685Z,25.84
2018-05-07T16:38:50.111Z,25.76
2018-05-07T16:41:17.507Z,25.76
2018-05-07T16:43:44.932Z,25.78
2018-05-07T16:46:12.348Z,25.79
2018-05-07T16:48:39.811Z,25.73
2018-05-07T16:51:07.177Z,25.68
2018-05-07T16:53:34.600Z,25.62
2018-05-07T16:56:02.020Z,25.59
2018-05-07T16:58:29.430Z,25.52
2018-05-07T17:00:56.862Z,25.50
2018-05-07T17:03:24.264Z,25.48
2018-05-07T17:05:51.681Z,25.44
2018-05-07T17:08:19.170Z,25.41
2018-05-07T17:10:46.508Z,25.38
2018-05-07T17:13:13.911Z,25.33
2018-05-07T17:15:41.314Z,25.28
2018-05-07T17:18:08.723Z,25.29
2018-05-07T17:20:36.139Z,25.28
2018-05-07T17:23:03.552Z,25.18
2018-05-07T17:25:30.959Z,25.12
2018-05-07T17:27:58.360Z,25.10
2018-05-07T17:30:25.780Z,25.07
2018-05-07T17:32:53.200Z,25.06
2018-05-07T17:35:20.628Z,25.03
2018-05-07T17:37:48.049Z,24.97
2018-05-07T17:40:15.464Z,24.89
2018-05-07T17:42:42.886Z,24.87
2018-05-07T17:45:26.080Z,24.79
2018-05-07T17:48:05.386Z,24.75
2018-05-07T17:50:32.778Z,24.69
2018-05-07T17:53:00.221Z,24.65
2018-05-07T17:55:27.612Z,24.57
2018-05-07T17:57:55.048Z,24.49
2018-05-07T18:00:22.456Z,24.43
2018-05-07T18:02:49.925Z,24.35
2018-05-07T18:05:17.460Z,24.30
2018-05-07T18:07:44.886Z,24.23
2018-05-07T18:10:12.400Z,24.18
2018-05-07T18:12:41.798Z,24.12
2018-05-07T18:15:10.115Z,24.10
2018-05-07T18:17:37.586Z,23.98
2018-05-07T18:20:05.147Z,23.92
2018-05-07T18:22:32.581Z,23.82
2018-05-07T18:24:59.979Z,23.77
2018-05-07T18:27:27.421Z,23.69
2018-05-07T18:29:54.828Z,23.63
2018-05-07T18:32:22.376Z,23.58
2018-05-07T18:34:49.747Z,23.51
2018-05-07T18:37:18.286Z,23.47
2018-05-07T18:39:45.755Z,23.39
2018-05-07T18:42:13.165Z,23.33
2018-05-07T18:44:40.585Z,23.25
2018-05-07T18:47:07.984Z,23.19
2018-05-07T18:49:35.560Z,23.06
2018-05-07T18:52:03.109Z,23.01
2018-05-07T18:54:30.585Z,22.97
2018-05-07T18:56:57.998Z,22.87
2018-05-07T18:59:25.447Z,22.81
2018-05-07T19:01:52.886Z,22.74
2018-05-07T19:04:20.290Z,22.66
2018-05-07T19:06:48.748Z,22.60
2018-05-07T19:09:16.171Z,22.52
2018-05-07T19:11:43.865Z,22.41
2018-05-07T19:14:11.284Z,22.36
2018-05-07T19:16:38.666Z,22.29
2018-05-07T19:19:06.137Z,22.22
2018-05-07T19:21:33.567Z,22.16
2018-05-07T19:24:00.982Z,22.05
2018-05-07T19:26:29.012Z,21.99
2018-05-07T19:28:56.484Z,21.92
2018-05-07T19:31:23.885Z,21.84
2018-05-07T19:33:51.275Z,21.76
2018-05-07T19:36:18.695Z,21.71
2018-05-07T19:38:46.106Z,21.65
2018-05-07T19:41:14.512Z,21.62
2018-05-07T19:43:42.376Z,21.55
2018-05-07T19:46:09.779Z,21.49
2018-05-07T19:48:37.444Z,21.43
2018-05-07T19:51:04.852Z,21.39
2018-05-07T19:53:32.299Z,21.35
2018-05-07T19:55:59.763Z,21.30
2018-05-07T19:58:27.156Z,21.22
2018-05-07T20:00:54.564Z,21.16
2018-05-07T20:03:21.979Z,21.09
2018-05-07T20:05:49.406Z,21.04
2018-05-07T20:08:16.805Z,20.98
2018-05-07T20:10:44.196Z,20.91
2018-05-07T20:13:11.610Z,20.85
2018-05-07T20:15:39.192Z,20.77
2018-05-07T20:18:06.786Z,20.71
2018-05-07T20:20:34.245Z,20.66
2018-05-07T20:23:01.848Z,20.59
2018-05-07T20:25:29.739Z,20.51
2018-05-07T20:27:57.496Z,20.42
2018-05-07T20:30:24.931Z,20.33
2018-05-07T20:32:52.630Z,20.26
2018-05-07T20:35:20.448Z,20.18
2018-05-07T20:37:47.925Z,20.10
2018-05-07T20:40:15.827Z,20.06
2018-05-07T20:42:43.205Z,20.03
2018-05-07T20:45:10.852Z,20.00
2018-05-07T20:47:38.574Z,19.98
2018-05-07T20:50:06.294Z,19.96
2018-05-07T20:52:33.840Z,19.93
2018-05-07T20:55:01.305Z,19.89
2018-05-07T20:57:29.705Z,19.85
2018-05-07T20:59:57.143Z,19.80
2018-05-07T21:02:24.591Z,19.76
2018-05-07T21:04:52.075Z,19.70
2018-05-07T21:07:19.484Z,19.64
2018-05-07T21:09:46.898Z,19.56
2018-05-07T21:12:14.387Z,19.49
2018-05-07T21:14:41.827Z,19.42
2018-05-07T21:17:09.291Z,19.35
2018-05-07T21:19:36.719Z,19.26
2018-05-07T21:22:04.167Z,19.17
2018-05-07T21:24:31.579Z,19.09
2018-05-07T21:26:58.992Z,19.05
2018-05-07T21:29:26.417Z,19.01
2018-05-07T21:31:53.831Z,18.98
2018-05-07T21:34:21.236Z,18.95
2018-05-07T21:36:48.647Z,18.92
2018-05-07T21:39:16.048Z,18.84
2018-05-07T21:41:43.512Z,18.76
2018-05-07T21:44:10.912Z,18.69
2018-05-07T21:46:38.328Z,18.60
2018-05-07T21:49:05.740Z,18.52
2018-05-07T21:51:33.151Z,18.43
2018-05-07T21:54:00.564Z,18.35
2018-05-07T21:56:28.051Z,18.30
2018-05-07T21:58:55.788Z,18.25
2018-05-07T22:01:23.181Z,18.18
2018-05-07T22:03:50.579Z,18.13
2018-05-07T22:06:17.984Z,18.09
2018-05-07T22:08:45.387Z,18.05
2018-05-07T22:11:12.800Z,18.01
2018-05-07T22:13:40.206Z,17.99
2018-05-07T22:16:07.618Z,17.94
2018-05-07T22:18:35.020Z,17.88
2018-05-07T22:21:02.440Z,17.79
2018-05-07T22:23:29.839Z,17.71
2018-05-07T22:25:57.259Z,17.62
2018-05-07T22:28:24.669Z,17.54
2018-05-07T22:30:52.095Z,17.46
2018-05-07T22:33:19.516Z,17.37
2018-05-07T22:35:46.942Z,17.29
2018-05-07T22:38:14.357Z,17.16
2018-05-07T22:40:47.428Z,17.16
2018-05-07T22:43:14.833Z,17.10
2018-05-07T22:45:42.249Z,17.04
2018-05-07T22:48:09.656Z,16.99
2018-05-07T22:50:37.071Z,16.95
2018-05-07T22:53:04.481Z,16.89
2018-05-07T22:55:31.899Z,16.80
2018-05-07T22:57:59.312Z,16.71
2018-05-07T23:00:26.785Z,16.63
2018-05-07T23:02:54.171Z,16.55
2018-05-07T23:05:21.587Z,16.49
2018-05-07T23:07:49.005Z,16.43
2018-05-07T23:10:16.426Z,16.40
2018-05-07T23:12:43.828Z,16.36
2018-05-07T23:15:11.587Z,16.29
2018-05-07T23:17:38.992Z,16.21
2018-05-07T23:20:06.400Z,16.15
2018-05-07T23:22:33.849Z,16.10
2018-05-07T23:25:01.313Z,16.00
2018-05-07T23:27:28.716Z,15.91
2018-05-07T23:29:56.123Z,15.91
2018-05-07T23:32:23.531Z,15.87
2018-05-07T23:34:50.944Z,15.83
2018-05-07T23:37:18.363Z,15.78
2018-05-07T23:39:45.769Z,15.72
2018-05-07T23:42:13.199Z,15.66
2018-05-07T23:44:40.604Z,15.65
2018-05-07T23:47:08.024Z,15.61
2018-05-07T23:49:35.432Z,15.51
2018-05-07T23:52:02.856Z,15.45
2018-05-07T23:54:30.256Z,15.41
2018-05-07T23:56:57.664Z,15.35
2018-05-07T23:59:25.077Z,15.36
